Time;durP1;ratioP1;P1;durP2;ratioP2;P2;SDS_P1;SDS_P2;PMS_P1;PMS_P2;Temp;Humidity;BMP_temperature;BMP_pressure;BME280_temperature;BME280_humidity;BME280_pressure;Samples;Min_cycle;Max_cycle;Signal;HPM_P1;HPM_P2
2021/04/25 00:01:24;;;;;;;16.05;7.65;;;7.10;70.70;;;;;;5093595;28;20101;-71
2021/04/25 00:03:50;;;;;;;16.50;7.40;;;7.20;70.90;;;;;;5093900;28;20031;-71
2021/04/25 00:06:15;;;;;;;14.07;7.15;;;7.20;70.60;;;;;;5093651;28;20326;-71
2021/04/25 00:08:41;;;;;;;19.83;7.72;;;7.30;70.60;;;;;;5093015;28;20089;-71
2021/04/25 00:11:06;;;;;;;16.67;8.15;;;7.30;70.60;;;;;;5093903;28;20427;-71
2021/04/25 00:13:32;;;;;;;13.80;6.95;;;7.30;70.60;;;;;;5093384;28;20019;-71
2021/04/25 00:15:58;;;;;;;19.52;7.07;;;7.30;70.40;;;;;;5094810;28;20095;-70
2021/04/25 00:18:24;;;;;;;13.93;6.90;;;7.30;70.60;;;;;;5093484;28;20047;-71
2021/04/25 00:20:50;;;;;;;15.43;7.88;;;7.30;70.40;;;;;;5095042;28;20067;-71
2021/04/25 00:23:16;;;;;;;16.90;7.72;;;7.40;70.50;;;;;;5092963;28;20023;-71
2021/04/25 00:25:42;;;;;;;13.27;6.90;;;7.40;70.20;;;;;;5095155;28;20024;-70
2021/04/25 00:28:07;;;;;;;16.73;7.97;;;7.40;70.20;;;;;;5093534;28;20055;-70
2021/04/25 00:30:33;;;;;;;16.52;7.53;;;7.40;70.10;;;;;;5094171;28;20016;-70
2021/04/25 00:32:59;;;;;;;12.27;7.25;;;7.50;70.20;;;;;;5093384;28;20027;-71
2021/04/25 00:35:25;;;;;;;18.35;7.05;;;7.40;70.10;;;;;;5094132;28;20012;-70
2021/04/25 00:37:51;;;;;;;19.08;8.02;;;7.40;70.40;;;;;;5093288;28;20145;-71
2021/04/25 00:40:18;;;;;;;13.90;7.15;;;7.50;70.40;;;;;;5094000;28;20059;-71
2021/04/25 00:42:44;;;;;;;13.93;6.95;;;7.50;70.20;;;;;;5094273;28;20031;-71
2021/04/25 00:45:13;;;;;;;13.25;6.40;;;7.40;70.20;;;;;;5092890;28;20039;-71
2021/04/25 00:47:40;;;;;;;13.07;7.15;;;7.40;70.10;;;;;;5092859;28;20452;-71
2021/04/25 00:50:07;;;;;;;15.05;7.78;;;7.40;70.50;;;;;;5094346;28;20020;-72
2021/04/25 00:52:37;;;;;;;16.42;7.75;;;7.30;70.30;;;;;;5094078;28;20024;-71
2021/04/25 00:55:05;;;;;;;15.50;8.23;;;7.30;70.60;;;;;;5092928;28;20016;-71
2021/04/25 00:57:31;;;;;;;16.08;7.70;;;7.30;70.60;;;;;;5092597;28;20495;-71
2021/04/25 00:59:57;;;;;;;13.02;7.00;;;7.20;70.40;;;;;;5093811;28;20111;-72
2021/04/25 01:02:24;;;;;;;14.95;7.43;;;7.10;70.50;;;;;;5092515;28;20020;-71
2021/04/25 01:04:50;;;;;;;12.68;6.95;;;7.00;71.00;;;;;;5094141;28;20085;-71
2021/04/25 01:07:15;;;;;;;12.88;6.43;;;6.90;71.40;;;;;;5092803;28;20452;-71
2021/04/25 01:09:41;;;;;;;34.00;15.95;;;6.90;71.40;;;;;;5091954;28;20569;-71
2021/04/25 01:12:07;;;;;;;15.55;7.07;;;6.80;71.70;;;;;;5093726;28;20031;-71
2021/04/25 01:14:33;;;;;;;15.45;7.60;;;6.70;71.80;;;;;;5093277;28;20042;-71
2021/04/25 01:16:59;;;;;;;14.43;6.82;;;6.70;71.90;;;;;;5094113;28;20390;-71
2021/04/25 01:19:24;;;;;;;13.85;7.18;;;6.60;71.80;;;;;;5094391;28;20491;-70
2021/04/25 01:21:50;;;;;;;11.88;6.18;;;6.50;71.90;;;;;;5093039;28;20032;-71
2021/04/25 01:24:16;;;;;;;16.00;6.75;;;6.50;72.00;;;;;;5092330;28;20024;-71
2021/04/25 01:26:41;;;;;;;12.82;6.75;;;6.40;71.80;;;;;;5092036;28;20031;-71
2021/04/25 01:29:07;;;;;;;12.82;5.45;;;6.40;71.80;;;;;;5091947;28;20031;-71
2021/04/25 01:31:32;;;;;;;11.02;5.47;;;6.40;71.60;;;;;;5091998;28;20034;-71
2021/04/25 01:33:58;;;;;;;14.85;6.28;;;6.30;71.20;;;;;;5093515;28;20583;-71
2021/04/25 01:36:24;;;;;;;12.38;5.63;;;6.30;71.20;;;;;;5091824;28;20012;-71
2021/04/25 01:38:50;;;;;;;10.80;4.88;;;6.20;71.10;;;;;;5093380;28;20479;-72
2021/04/25 01:41:16;;;;;;;13.73;5.22;;;6.20;70.70;;;;;;5092939;28;20096;-72
2021/04/25 01:43:42;;;;;;;12.18;5.45;;;6.10;71.00;;;;;;5092835;28;20512;-72
2021/04/25 01:46:08;;;;;;;14.55;5.30;;;6.10;70.70;;;;;;5093275;28;20020;-72
2021/04/25 01:48:33;;;;;;;12.75;5.10;;;6.00;70.50;;;;;;5093300;28;20026;-72
2021/04/25 01:50:59;;;;;;;9.98;5.03;;;6.00;70.60;;;;;;5093127;28;20587;-70
2021/04/25 01:53:25;;;;;;;11.82;5.38;;;5.90;70.60;;;;;;5091562;28;20052;-72
2021/04/25 01:55:50;;;;;;;13.75;4.97;;;5.90;70.80;;;;;;5093036;28;20352;-71
2021/04/25 01:58:16;;;;;;;11.38;5.43;;;5.90;70.90;;;;;;5092816;28;20019;-71
2021/04/25 02:00:45;;;;;;;13.38;5.18;;;5.90;71.20;;;;;;5092427;28;20402;-71
2021/04/25 02:03:12;;;;;;;11.65;5.30;;;5.90;70.70;;;;;;5092723;28;20028;-71
2021/04/25 02:05:42;;;;;;;14.18;5.43;;;5.90;70.20;;;;;;5092354;28;20012;-71
2021/04/25 02:08:09;;;;;;;13.25;4.55;;;6.00;70.30;;;;;;5092476;28;20026;-71
2021/04/25 02:10:36;;;;;;;11.35;5.07;;;6.00;70.00;;;;;;5091282;28;20016;-70
2021/04/25 02:13:03;;;;;;;14.18;5.35;;;6.00;70.50;;;;;;5091569;28;20016;-72
2021/04/25 02:15:29;;;;;;;10.73;4.97;;;6.00;70.30;;;;;;5091296;28;20072;-72
2021/04/25 02:17:55;;;;;;;13.55;4.60;;;6.00;70.00;;;;;;5091432;28;20111;-71
2021/04/25 02:20:22;;;;;;;16.23;5.45;;;5.90;69.80;;;;;;5093157;28;20020;-72
2021/04/25 02:22:48;;;;;;;12.18;5.00;;;6.00;70.00;;;;;;5092432;28;20405;-70
2021/04/25 02:25:17;;;;;;;12.48;4.78;;;6.00;69.80;;;;;;5090223;28;20013;-71
2021/04/25 02:27:43;;;;;;;11.73;4.68;;;5.90;69.60;;;;;;5092068;28;20016;-71
2021/04/25 02:30:15;;;;;;;12.20;4.60;;;5.90;69.60;;;;;;5091169;28;20474;-71
2021/04/25 02:32:41;;;;;;;14.55;5.53;;;5.90;69.30;;;;;;5090999;28;20120;-71
2021/04/25 02:35:09;;;;;;;13.35;4.93;;;5.90;69.50;;;;;;5092487;28;20099;-70
2021/04/25 02:37:35;;;;;;;9.35;4.70;;;5.80;69.40;;;;;;5090623;28;20036;-71
2021/04/25 02:40:01;;;;;;;20.52;6.22;;;5.80;69.20;;;;;;5092090;28;20380;-71
2021/04/25 02:42:26;;;;;;;11.02;5.53;;;5.80;69.40;;;;;;5092139;28;20468;-70
2021/04/25 02:44:52;;;;;;;11.57;4.65;;;5.80;69.50;;;;;;5092364;28;20484;-72
2021/04/25 02:47:18;;;;;;;14.23;4.47;;;5.80;69.30;;;;;;5092107;28;20445;-71
2021/04/25 02:49:43;;;;;;;12.27;5.30;;;5.80;69.50;;;;;;5092023;28;20101;-71
2021/04/25 02:52:09;;;;;;;12.18;4.57;;;5.80;69.30;;;;;;5092072;28;20016;-71
2021/04/25 02:54:34;;;;;;;13.43;4.53;;;5.80;69.30;;;;;;5092094;28;20051;-72
2021/04/25 02:57:00;;;;;;;13.68;4.82;;;5.80;69.80;;;;;;5092307;28;20035;-71
2021/04/25 02:59:26;;;;;;;10.32;4.72;;;5.80;69.00;;;;;;5092435;28;20448;-71
2021/04/25 03:01:52;;;;;;;12.73;4.40;;;5.80;68.60;;;;;;5091001;28;20032;-70
2021/04/25 03:04:17;;;;;;;10.93;3.45;;;5.90;68.70;;;;;;5090916;28;20100;-72
2021/04/25 03:06:43;;;;;;;16.60;4.60;;;5.80;68.60;;;;;;5090734;28;20020;-73
2021/04/25 03:09:08;;;;;;;14.93;4.82;;;5.80;68.50;;;;;;5091934;28;20074;-72
2021/04/25 03:11:34;;;;;;;12.30;4.10;;;5.80;69.00;;;;;;5092186;28;20024;-72
2021/04/25 03:14:00;;;;;;;13.38;4.70;;;5.80;68.40;;;;;;5093601;28;20446;-71
2021/04/25 03:16:25;;;;;;;11.23;4.45;;;5.90;68.10;;;;;;5090798;28;20073;-72
2021/04/25 03:18:51;;;;;;;12.57;4.53;;;5.90;68.00;;;;;;5091134;28;20356;-72
2021/04/25 03:21:17;;;;;;;9.85;4.50;;;5.90;68.20;;;;;;5092255;28;20433;-72
2021/04/25 03:23:42;;;;;;;10.60;4.13;;;5.90;68.00;;;;;;5091900;28;20076;-72
2021/04/25 03:26:08;;;;;;;12.05;4.22;;;6.00;68.00;;;;;;5090376;28;20031;-72
2021/04/25 03:28:34;;;;;;;9.95;3.67;;;6.00;67.90;;;;;;5090257;28;20016;-72
2021/04/25 03:30:59;;;;;;;11.00;3.92;;;6.10;67.60;;;;;;5091721;28;20017;-72
2021/04/25 03:33:25;;;;;;;10.77;4.97;;;6.10;67.00;;;;;;5091706;28;20405;-72
2021/04/25 03:35:50;;;;;;;13.00;4.15;;;6.10;66.90;;;;;;5092209;28;20035;-72
2021/04/25 03:38:16;;;;;;;15.18;4.18;;;6.10;66.40;;;;;;5095460;28;20062;-72
2021/04/25 03:40:42;;;;;;;9.38;3.70;;;6.10;66.40;;;;;;5093914;28;20341;-72
2021/04/25 03:43:08;;;;;;;14.05;3.97;;;6.10;66.70;;;;;;5094399;28;20023;-72
2021/04/25 03:45:34;;;;;;;8.32;3.72;;;6.10;66.40;;;;;;5095033;28;20027;-72
2021/04/25 03:48:00;;;;;;;11.57;4.15;;;6.20;66.80;;;;;;5094185;28;20016;-72
2021/04/25 03:50:27;;;;;;;11.88;4.35;;;6.20;66.30;;;;;;5094144;28;20016;-72
2021/04/25 03:52:53;;;;;;;11.00;4.30;;;6.20;66.30;;;;;;5093714;28;20039;-73
2021/04/25 03:55:20;;;;;;;11.60;4.35;;;6.20;66.20;;;;;;5095463;28;20016;-73
2021/04/25 03:57:48;;;;;;;11.15;4.68;;;6.30;66.50;;;;;;5094922;28;20099;-72
2021/04/25 04:00:15;;;;;;;15.23;5.43;;;6.30;66.40;;;;;;5093964;28;20467;-71
2021/04/25 04:02:40;;;;;;;8.30;4.03;;;6.30;66.00;;;;;;5094992;28;20032;-73
2021/04/25 04:05:07;;;;;;;14.70;4.53;;;6.40;66.50;;;;;;5093957;28;20423;-71
2021/04/25 04:07:33;;;;;;;10.57;3.75;;;6.40;66.40;;;;;;5093314;28;20017;-72
2021/04/25 04:09:58;;;;;;;10.77;4.05;;;6.50;66.20;;;;;;5095147;28;20414;-73
2021/04/25 04:12:24;;;;;;;11.18;4.03;;;6.50;66.20;;;;;;5093565;28;20020;-72
2021/04/25 04:14:50;;;;;;;11.52;4.88;;;6.50;66.00;;;;;;5093368;28;20040;-72
2021/04/25 04:17:16;;;;;;;13.80;3.80;;;6.50;65.50;;;;;;5094859;28;20013;-72
2021/04/25 04:19:42;;;;;;;10.15;3.97;;;6.50;65.60;;;;;;5093450;28;20111;-73
2021/04/25 04:22:07;;;;;;;8.55;3.60;;;6.50;65.30;;;;;;5094637;28;20032;-71
2021/04/25 04:24:33;;;;;;;9.40;4.05;;;6.60;65.50;;;;;;5093136;28;20484;-70
2021/04/25 04:26:59;;;;;;;10.32;3.67;;;6.60;65.50;;;;;;5094831;28;20507;-72
2021/04/25 04:29:24;;;;;;;11.18;3.58;;;6.60;65.30;;;;;;5093455;28;20459;-72
2021/04/25 04:31:50;;;;;;;12.70;3.65;;;6.60;66.80;;;;;;5093191;28;20056;-72
2021/04/25 04:34:16;;;;;;;11.38;3.45;;;6.50;65.60;;;;;;5094651;28;20023;-72
2021/04/25 04:36:42;;;;;;;10.68;3.40;;;6.60;65.80;;;;;;5093024;28;20416;-72
2021/04/25 04:39:08;;;;;;;15.68;4.43;;;6.60;65.40;;;;;;5094562;28;20016;-73
2021/04/25 04:41:33;;;;;;;9.30;3.22;;;6.60;65.10;;;;;;5093967;28;20412;-72
2021/04/25 04:44:00;;;;;;;7.82;3.15;;;6.60;64.90;;;;;;5094477;28;20016;-71
2021/04/25 04:46:26;;;;;;;9.52;3.35;;;6.60;65.90;;;;;;5093001;28;20016;-71
2021/04/25 04:48:51;;;;;;;11.43;4.18;;;6.70;65.40;;;;;;5092998;28;20032;-72
2021/04/25 04:51:17;;;;;;;9.85;2.72;;;6.70;65.00;;;;;;5094113;28;20016;-72
2021/04/25 04:53:43;;;;;;;8.85;3.63;;;6.60;65.00;;;;;;5092521;28;20013;-72
2021/04/25 04:56:08;;;;;;;8.70;2.40;;;6.70;64.80;;;;;;5094310;28;20024;-71
2021/04/25 04:58:34;;;;;;;9.48;2.33;;;6.60;65.20;;;;;;5093892;28;20091;-72
2021/04/25 05:00:59;;;;;;;10.40;2.55;;;6.60;64.40;;;;;;5094025;28;20533;-73
2021/04/25 05:03:25;;;;;;;9.43;2.60;;;6.60;63.70;;;;;;5094136;28;20056;-72
2021/04/25 05:05:50;;;;;;;9.90;2.40;;;6.70;63.70;;;;;;5094117;28;20062;-72
2021/04/25 05:08:16;;;;;;;14.05;2.53;;;6.70;64.00;;;;;;5092467;28;20023;-72
2021/04/25 05:10:42;;;;;;;8.30;2.40;;;6.70;64.20;;;;;;5093921;28;20030;-72
2021/04/25 05:13:11;;;;;;;8.10;2.45;;;6.70;65.00;;;;;;5094313;28;20024;-72
2021/04/25 05:15:37;;;;;;;8.40;2.53;;;6.80;69.00;;;;;;5092516;28;20008;-72
2021/04/25 05:18:03;;;;;;;7.70;2.97;;;6.80;64.40;;;;;;5093868;28;20099;-73
2021/04/25 05:20:29;;;;;;;8.15;2.28;;;6.80;64.30;;;;;;5092763;28;20166;-72
2021/04/25 05:22:58;;;;;;;10.13;4.13;;;6.80;64.00;;;;;;5092189;28;20532;-72
2021/04/25 05:25:25;;;;;;;10.20;2.63;;;6.80;64.30;;;;;;5093751;28;20016;-71
2021/04/25 05:27:51;;;;;;;6.80;2.00;;;6.80;69.30;;;;;;5092342;28;20027;-72
2021/04/25 05:30:17;;;;;;;9.68;2.20;;;6.80;64.10;;;;;;5092264;28;20016;-72
2021/04/25 05:32:43;;;;;;;9.45;3.33;;;6.90;67.50;;;;;;5092051;28;20018;-72
2021/04/25 05:35:09;;;;;;;9.45;2.47;;;6.90;64.50;;;;;;5092163;28;20015;-72
2021/04/25 05:37:36;;;;;;;12.45;3.60;;;6.90;69.60;;;;;;5092920;28;20456;-72
2021/04/25 05:40:04;;;;;;;8.82;1.80;;;6.90;67.70;;;;;;5093838;28;20456;-72
2021/04/25 05:42:30;;;;;;;5.35;2.20;;;7.00;69.60;;;;;;5092992;28;20059;-72
2021/04/25 05:44:55;;;;;;;10.45;3.33;;;7.00;67.50;;;;;;5092919;28;20047;-72
2021/04/25 05:47:21;;;;;;;9.32;2.40;;;7.00;64.40;;;;;;5093257;28;20525;-73
2021/04/25 05:49:47;;;;;;;13.30;3.13;;;7.00;67.90;;;;;;5091793;28;20352;-73
2021/04/25 05:52:13;;;;;;;8.77;2.78;;;7.10;63.30;;;;;;5093205;28;20028;-72
2021/04/25 05:54:38;;;;;;;12.18;2.80;;;7.10;65.30;;;;;;5091644;28;20016;-73
2021/04/25 05:57:07;;;;;;;9.23;3.15;;;7.10;63.10;;;;;;5092828;28;20024;-73
2021/04/25 05:59:33;;;;;;;9.98;2.70;;;7.10;65.10;;;;;;5091644;28;20498;-73
2021/04/25 06:01:59;;;;;;;16.45;2.63;;;7.20;63.10;;;;;;5092477;28;20579;-71
2021/04/25 06:04:24;;;;;;;12.70;2.88;;;7.20;62.20;;;;;;5092696;28;20044;-72
2021/04/25 06:06:51;;;;;;;7.50;2.00;;;7.20;61.20;;;;;;5091429;28;20019;-72
2021/04/25 06:09:17;;;;;;;10.35;2.80;;;7.20;63.70;;;;;;5092576;28;20036;-73
2021/04/25 06:11:43;;;;;;;11.98;2.58;;;7.30;64.30;;;;;;5092344;28;20023;-72
2021/04/25 06:14:08;;;;;;;10.55;2.40;;;7.30;62.00;;;;;;5092521;28;20020;-72
2021/04/25 06:16:34;;;;;;;5.15;2.08;;;7.30;66.90;;;;;;5091461;28;20097;-72
2021/04/25 06:18:59;;;;;;;8.48;1.95;;;7.30;69.60;;;;;;5092298;28;20024;-72
2021/04/25 06:21:26;;;;;;;6.85;1.95;;;7.30;63.40;;;;;;5091241;28;20465;-72
2021/04/25 06:23:52;;;;;;;13.60;2.50;;;7.30;63.50;;;;;;5091990;28;20020;-72
2021/04/25 06:26:18;;;;;;;6.72;2.15;;;7.30;63.10;;;;;;5091383;28;20089;-73
2021/04/25 06:28:43;;;;;;;10.63;2.97;;;7.40;65.10;;;;;;5092067;28;20452;-72
2021/04/25 06:31:09;;;;;;;7.85;2.28;;;7.40;65.30;;;;;;5091326;28;20107;-73
2021/04/25 06:33:34;;;;;;;8.43;2.30;;;7.50;61.80;;;;;;5092814;28;20344;-72
2021/04/25 06:36:00;;;;;;;3.22;1.42;;;7.50;62.50;;;;;;5092280;28;20052;-73
2021/04/25 06:38:25;;;;;;;9.23;1.98;;;7.60;71.10;;;;;;5091142;28;20031;-72
2021/04/25 06:40:51;;;;;;;5.68;1.92;;;7.70;67.70;;;;;;5090769;28;20051;-73
2021/04/25 06:43:18;;;;;;;10.90;1.92;;;7.80;66.10;;;;;;5092406;28;20028;-72
2021/04/25 06:45:44;;;;;;;8.70;2.05;;;7.70;62.60;;;;;;5091871;28;20020;-71
2021/04/25 06:48:09;;;;;;;10.75;2.60;;;7.80;68.50;;;;;;5090727;28;20039;-72
2021/04/25 06:50:35;;;;;;;9.40;3.35;;;7.80;66.80;;;;;;5090741;28;20475;-72
2021/04/25 06:53:01;;;;;;;9.25;2.08;;;7.80;61.20;;;;;;5090725;28;20016;-71
2021/04/25 06:55:27;;;;;;;12.13;2.58;;;7.80;60.90;;;;;;5090835;28;20036;-72
2021/04/25 06:57:52;;;;;;;6.65;1.85;;;7.80;60.40;;;;;;5090507;28;20020;-72
2021/04/25 07:00:21;;;;;;;5.93;1.77;;;7.90;60.80;;;;;;5090678;28;20027;-72
2021/04/25 07:02:46;;;;;;;7.07;2.45;;;7.90;62.80;;;;;;5090636;28;20101;-72
2021/04/25 07:05:13;;;;;;;11.45;2.13;;;8.00;65.40;;;;;;5092192;28;20402;-71
2021/04/25 07:07:38;;;;;;;4.35;1.20;;;8.00;62.80;;;;;;5092858;28;20101;-72
2021/04/25 07:10:05;;;;;;;11.32;2.63;;;8.10;63.90;;;;;;5090559;28;20064;-71
2021/04/25 07:12:31;;;;;;;13.95;2.40;;;8.10;60.00;;;;;;5093244;28;20031;-72
2021/04/25 07:14:57;;;;;;;4.63;1.52;;;8.20;60.30;;;;;;5094540;28;20023;-71
2021/04/25 07:17:24;;;;;;;8.65;2.10;;;8.50;70.30;;;;;;5096169;28;20030;-71
2021/04/25 07:19:49;;;;;;;4.35;1.48;;;8.50;68.50;;;;;;5095643;28;20262;-71
2021/04/25 07:22:15;;;;;;;8.30;2.47;;;8.50;65.80;;;;;;5096045;28;20520;-72
2021/04/25 07:24:41;;;;;;;5.57;1.60;;;8.50;59.60;;;;;;5095938;28;20421;-72
2021/04/25 07:27:06;;;;;;;3.55;1.38;;;8.60;69.80;;;;;;5095943;28;20028;-72
2021/04/25 07:29:32;;;;;;;12.77;2.22;;;8.70;70.40;;;;;;5095968;28;20020;-72
2021/04/25 07:31:58;;;;;;;8.50;1.60;;;8.70;60.20;;;;;;5095713;28;20105;-72
2021/04/25 07:34:25;;;;;;;5.55;1.30;;;8.70;66.30;;;;;;5094568;28;20044;-73
2021/04/25 07:36:51;;;;;;;8.60;1.52;;;8.80;68.70;;;;;;5096026;28;20024;-71
2021/04/25 07:39:16;;;;;;;8.23;1.55;;;8.80;65.70;;;;;;5094492;28;20016;-72
2021/04/25 07:41:42;;;;;;;4.32;1.40;;;8.80;64.10;;;;;;5093941;28;20464;-72
2021/04/25 07:44:08;;;;;;;17.25;2.72;;;8.80;66.80;;;;;;5095454;28;20039;-72
2021/04/25 07:46:34;;;;;;;4.82;1.20;;;8.90;59.50;;;;;;5093961;28;20016;-71
2021/04/25 07:49:00;;;;;;;6.68;1.70;;;8.90;61.30;;;;;;5093815;28;20031;-71
2021/04/25 07:51:25;;;;;;;6.97;1.80;;;8.90;62.00;;;;;;5094160;28;20020;-72
2021/04/25 07:53:53;;;;;;;7.78;1.52;;;8.90;61.50;;;;;;5094996;28;20367;-71
2021/04/25 07:56:19;;;;;;;4.78;1.55;;;8.90;58.10;;;;;;5095750;28;20026;-72
2021/04/25 07:58:44;;;;;;;7.68;1.45;;;9.00;66.80;;;;;;5095146;28;20008;-72
2021/04/25 08:01:10;;;;;;;13.82;2.72;;;9.10;62.30;;;;;;5093953;28;20399;-72
2021/04/25 08:03:36;;;;;;;5.65;1.92;;;9.20;61.00;;;;;;5094990;28;20073;-72
2021/04/25 08:06:03;;;;;;;10.68;1.73;;;9.30;65.30;;;;;;5094787;28;20099;-73
2021/04/25 08:08:28;;;;;;;4.35;1.63;;;9.30;58.20;;;;;;5093700;28;20418;-73
2021/04/25 08:10:54;;;;;;;8.13;1.85;;;9.40;67.40;;;;;;5093674;28;20016;-73
2021/04/25 08:13:19;;;;;;;4.72;1.08;;;9.50;67.70;;;;;;5094844;28;20031;-73
2021/04/25 08:15:45;;;;;;;6.63;2.08;;;9.60;67.10;;;;;;5093248;28;20020;-72
2021/04/25 08:18:10;;;;;;;11.25;2.10;;;9.40;66.70;;;;;;5094758;28;20059;-73
2021/04/25 08:20:36;;;;;;;6.05;1.38;;;9.40;63.80;;;;;;5094810;28;20016;-72
2021/04/25 08:23:02;;;;;;;10.43;1.63;;;9.40;61.90;;;;;;5091813;28;20379;-71
2021/04/25 08:25:28;;;;;;;8.73;1.40;;;9.40;65.70;;;;;;5093122;28;20449;-72
2021/04/25 08:27:54;;;;;;;10.55;1.63;;;9.40;67.40;;;;;;5093138;28;20014;-72
2021/04/25 08:30:21;;;;;;;3.13;0.90;;;9.40;64.10;;;;;;5093457;28;20373;-72
2021/04/25 08:32:47;;;;;;;6.03;1.70;;;9.60;66.50;;;;;;5093147;28;20043;-72
2021/04/25 08:35:13;;;;;;;3.13;1.35;;;9.70;63.40;;;;;;5095414;28;20420;-72
2021/04/25 08:37:38;;;;;;;3.58;1.20;;;9.80;67.20;;;;;;5096418;28;20022;-72
2021/04/25 08:40:05;;;;;;;7.90;1.40;;;9.90;67.50;;;;;;5094028;28;20012;-73
2021/04/25 08:42:31;;;;;;;5.68;1.40;;;10.00;57.80;;;;;;5095261;28;20028;-73
2021/04/25 08:44:58;;;;;;;4.75;1.27;;;10.10;59.60;;;;;;5094759;28;20031;-73
2021/04/25 08:47:28;;;;;;;13.38;2.08;;;10.20;62.00;;;;;;5092845;28;20094;-72
2021/04/25 08:49:58;;;;;;;3.72;1.40;;;10.20;56.80;;;;;;5092927;28;20069;-72
2021/04/25 08:52:24;;;;;;;5.60;1.25;;;10.30;65.40;;;;;;5094353;28;20065;-72
2021/04/25 08:54:51;;;;;;;6.43;1.38;;;10.40;63.90;;;;;;5092779;28;20038;-73
2021/04/25 08:57:17;;;;;;;5.05;1.45;;;10.40;57.30;;;;;;5094144;28;20019;-73
2021/04/25 08:59:43;;;;;;;12.73;2.38;;;10.50;55.80;;;;;;5092811;28;20019;-73
2021/04/25 09:02:08;;;;;;;8.23;1.77;;;10.50;54.10;;;;;;5094178;28;20352;-72
2021/04/25 09:04:34;;;;;;;7.93;1.17;;;10.50;55.40;;;;;;5092851;28;20076;-73
2021/04/25 09:07:01;;;;;;;6.25;1.20;;;10.50;60.50;;;;;;5094407;28;20018;-72
2021/04/25 09:09:46;;;;;;;6.35;1.30;;;10.60;65.10;;;;;;5093958;28;20044;-72
2021/04/25 09:12:29;;;;;;;6.93;1.60;;;10.70;60.20;;;;;;5093879;28;20043;-72
2021/04/25 09:14:54;;;;;;;9.75;1.65;;;10.80;53.30;;;;;;5093313;28;20391;-73
2021/04/25 09:17:20;;;;;;;9.80;1.85;;;10.90;55.50;;;;;;5092316;28;20115;-72
2021/04/25 09:19:47;;;;;;;5.50;1.33;;;10.90;59.60;;;;;;5092052;28;20012;-72
2021/04/25 09:22:14;;;;;;;6.85;1.00;;;11.10;62.60;;;;;;5092154;28;20114;-73
2021/04/25 09:24:39;;;;;;;8.85;1.88;;;11.10;62.40;;;;;;5091793;28;20055;-73
2021/04/25 09:27:05;;;;;;;9.68;1.35;;;11.30;61.10;;;;;;5091744;28;20027;-73
2021/04/25 09:29:58;;;;;;;4.38;1.17;;;11.20;60.20;;;;;;5093427;28;20020;-73
2021/04/25 09:32:29;;;;;;;7.28;1.40;;;11.30;58.10;;;;;;5093440;28;20095;-72
2021/04/25 09:35:10;;;;;;;3.03;1.33;;;11.20;61.30;;;;;;5091048;28;20026;-72
2021/04/25 09:37:38;;;;;;;11.38;1.85;;;11.20;58.60;;;;;;5093471;28;20040;-73
2021/04/25 09:40:10;;;;;;;5.82;1.48;;;11.30;59.10;;;;;;5091426;28;20101;-73
2021/04/25 09:42:57;;;;;;;7.45;1.88;;;11.30;61.40;;;;;;5092981;28;20028;-73
2021/04/25 09:45:31;;;;;;;3.25;1.08;;;11.40;58.90;;;;;;5093233;28;20035;-72
2021/04/25 09:47:59;;;;;;;11.00;1.98;;;11.50;61.90;;;;;;5092888;28;20016;-72
2021/04/25 09:50:26;;;;;;;5.72;2.08;;;11.70;58.20;;;;;;5091757;28;20483;-72
2021/04/25 09:52:52;;;;;;;11.73;1.80;;;11.80;57.40;;;;;;5092851;28;20020;-73
2021/04/25 09:55:20;;;;;;;8.10;1.85;;;12.00;56.80;;;;;;5091706;28;20022;-73
2021/04/25 09:57:47;;;;;;;4.57;1.10;;;12.00;56.50;;;;;;5093015;28;20095;-73
2021/04/25 10:00:14;;;;;;;7.30;1.98;;;12.00;58.00;;;;;;5091575;28;20356;-73
2021/04/25 10:02:59;;;;;;;9.45;1.77;;;12.10;58.30;;;;;;5091468;28;20047;-72
2021/04/25 10:05:26;;;;;;;4.53;0.95;;;12.20;58.60;;;;;;5091569;28;20077;-72
2021/04/25 10:07:51;;;;;;;12.05;2.38;;;12.30;63.10;;;;;;5090894;28;20472;-72
2021/04/25 10:10:19;;;;;;;10.45;1.63;;;12.60;50.20;;;;;;5092805;28;20140;-73
2021/04/25 10:12:46;;;;;;;8.80;1.63;;;12.80;49.10;;;;;;5092595;28;20360;-72
2021/04/25 10:15:13;;;;;;;7.78;1.30;;;12.90;53.90;;;;;;5091409;28;20060;-72
2021/04/25 10:17:45;;;;;;;7.05;1.45;;;13.10;55.90;;;;;;5090980;28;20016;-73
2021/04/25 10:20:13;;;;;;;5.15;1.17;;;13.20;56.40;;;;;;5073967;28;20028;-72
2021/04/25 10:22:40;;;;;;;9.30;1.73;;;13.30;59.00;;;;;;5092183;28;20020;-73
2021/04/25 10:25:12;;;;;;;7.00;1.33;;;13.40;51.70;;;;;;5090714;28;20024;-73
2021/04/25 10:27:42;;;;;;;7.85;1.50;;;13.50;58.50;;;;;;5090979;28;20016;-72
2021/04/25 10:30:12;;;;;;;4.82;1.52;;;13.70;51.50;;;;;;5090897;28;20110;-72
2021/04/25 10:32:41;;;;;;;5.40;1.00;;;13.80;49.70;;;;;;5092547;28;20099;-72
2021/04/25 10:35:21;;;;;;;9.95;2.20;;;14.00;54.90;;;;;;5092157;28;20024;-73
2021/04/25 10:37:48;;;;;;;;;;;14.50;56.10;;;;;;5092623;28;20016;-72
2021/04/25 10:40:28;;;;;;;7.38;1.77;;;14.70;51.30;;;;;;5092222;28;19987;-73
2021/04/25 10:43:11;;;;;;;3.83;1.25;;;14.60;54.50;;;;;;5092169;28;20146;-73
2021/04/25 10:45:58;;;;;;;3.42;0.95;;;14.60;58.80;;;;;;5091949;28;20045;-73
2021/04/25 10:48:26;;;;;;;6.05;1.40;;;14.80;59.30;;;;;;5091129;28;20031;-72
2021/04/25 10:51:02;;;;;;;6.82;1.58;;;15.00;48.10;;;;;;5092224;28;20073;-72
2021/04/25 10:53:31;;;;;;;7.22;2.10;;;14.80;54.20;;;;;;5092038;28;20068;-73
2021/04/25 10:56:14;;;;;;;9.05;1.67;;;14.70;54.40;;;;;;5089780;28;20431;-72
2021/04/25 10:58:41;;;;;;;5.68;1.23;;;14.60;52.50;;;;;;5091432;28;20016;-71
2021/04/25 11:01:08;;;;;;;6.65;1.40;;;14.40;56.30;;;;;;5090942;28;20016;-71
2021/04/25 11:03:33;;;;;;;6.88;1.17;;;14.40;47.00;;;;;;5090965;28;20012;-73
2021/04/25 11:05:59;;;;;;;11.35;1.83;;;14.50;61.20;;;;;;5091915;28;20020;-72
2021/04/25 11:08:39;;;;;;;10.35;2.72;;;14.30;46.00;;;;;;5091615;28;20050;-73
2021/04/25 11:11:10;;;;;;;8.23;1.30;;;14.50;46.00;;;;;;5091535;28;20034;-73
2021/04/25 11:13:45;;;;;;;5.55;1.55;;;15.10;56.80;;;;;;5090378;28;20099;-73
2021/04/25 11:16:16;;;;;;;6.43;1.40;;;15.30;56.50;;;;;;5091878;28;20533;-72
2021/04/25 11:19:02;;;;;;;10.85;2.05;;;15.30;51.40;;;;;;5091599;28;20528;-73
2021/04/25 11:21:31;;;;;;;8.93;2.28;;;15.30;47.80;;;;;;5090574;28;20031;-73
2021/04/25 11:23:58;;;;;;;6.45;1.35;;;15.20;48.20;;;;;;5091464;28;20075;-73
2021/04/25 11:29:09;;;;;;;7.97;2.08;;;15.50;53.20;;;;;;5091481;28;20107;-72
2021/04/25 11:31:51;;;;;;;9.48;1.70;;;15.90;50.80;;;;;;5090333;28;20024;-72
2021/04/25 11:34:29;;;;;;;7.30;2.08;;;16.40;44.50;;;;;;5091562;28;20012;-73
2021/04/25 11:37:19;;;;;;;4.93;1.60;;;16.60;52.70;;;;;;5089981;28;20492;-73
2021/04/25 11:39:53;;;;;;;6.50;1.30;;;16.90;51.60;;;;;;5090091;28;20020;-73
2021/04/25 11:42:39;;;;;;;6.47;2.17;;;16.90;47.10;;;;;;5091421;28;20034;-72
2021/04/25 11:45:12;;;;;;;10.25;1.33;;;17.10;43.40;;;;;;5090280;28;20111;-72
2021/04/25 11:48:05;;;;;;;7.07;1.40;;;17.20;51.10;;;;;;5090438;28;20017;-71
2021/04/25 11:50:36;;;;;;;4.78;1.70;;;16.80;41.50;;;;;;5091482;28;20313;-74
2021/04/25 11:53:02;;;;;;;5.07;1.38;;;16.80;55.00;;;;;;5091431;28;20012;-72
2021/04/25 11:55:29;;;;;;;5.38;1.27;;;17.00;55.90;;;;;;5091425;28;20096;-72
2021/04/25 11:57:54;;;;;;;3.83;1.30;;;17.10;55.80;;;;;;5092635;28;20056;-72
2021/04/25 12:00:29;;;;;;;5.22;1.20;;;17.10;47.30;;;;;;5093906;28;20112;-73
2021/04/25 12:02:58;;;;;;;3.75;0.95;;;17.10;57.80;;;;;;5095052;28;20035;-72
2021/04/25 12:05:35;;;;;;;5.97;1.23;;;17.10;58.10;;;;;;5095043;28;20512;-73
2021/04/25 12:08:07;;;;;;;4.13;1.25;;;17.10;50.70;;;;;;5093528;28;20023;-73
2021/04/25 12:10:39;;;;;;;9.13;1.67;;;17.10;58.10;;;;;;5093724;28;20073;-73
2021/04/25 12:13:10;;;;;;;1.65;0.60;;;17.10;54.10;;;;;;5094391;28;20492;-72
2021/04/25 12:15:47;;;;;;;7.47;1.80;;;17.30;59.00;;;;;;5093115;28;20020;-73
2021/04/25 12:18:14;;;;;;;5.07;1.35;;;17.50;48.20;;;;;;5093373;28;20099;-73
2021/04/25 12:20:53;;;;;;;6.88;1.52;;;17.60;50.40;;;;;;5093325;28;20012;-73
2021/04/25 12:23:24;;;;;;;6.53;1.63;;;17.80;42.80;;;;;;5094153;28;20059;-72
2021/04/25 12:25:50;;;;;;;7.40;1.58;;;18.00;51.10;;;;;;5075729;28;20017;-73
2021/04/25 12:28:17;;;;;;;5.75;1.17;;;18.20;53.30;;;;;;5073052;28;20342;-73
2021/04/25 12:30:54;;;;;;;8.32;1.75;;;18.40;54.00;;;;;;5074407;28;20066;-73
2021/04/25 12:33:19;;;;;;;2.90;0.90;;;18.40;44.90;;;;;;5073083;28;20082;-72
2021/04/25 12:35:51;;;;;;;3.97;1.00;;;18.70;54.40;;;;;;5072656;28;20025;-73
2021/04/25 12:38:24;;;;;;;4.38;1.27;;;18.60;55.80;;;;;;5073975;28;20016;-73
2021/04/25 12:40:54;;;;;;;5.57;1.42;;;18.20;50.40;;;;;;5072315;28;20527;-72
2021/04/25 12:43:20;;;;;;;4.40;1.30;;;18.10;47.90;;;;;;5074132;28;20027;-72
2021/04/25 12:45:46;;;;;;;3.03;1.00;;;18.30;54.20;;;;;;5072722;28;20144;-73
2021/04/25 12:48:30;;;;;;;7.95;2.13;;;18.10;53.60;;;;;;5072863;28;20037;-72
2021/04/25 12:51:04;;;;;;;5.55;1.88;;;17.80;46.10;;;;;;5074102;28;20048;-72
2021/04/25 12:53:31;;;;;;;8.68;2.17;;;18.00;55.50;;;;;;5075013;28;20013;-73
2021/04/25 12:56:15;;;;;;;9.10;1.90;;;18.20;47.10;;;;;;5072977;28;20023;-72